createdAt,value
2018-12-02T00:00:34.105Z,15.93
2018-12-02T00:03:05.265Z,16.23
2018-12-02T00:05:34.228Z,15.80
2018-12-02T00:08:02.536Z,15.40
2018-12-02T00:10:30.791Z,15.57
2018-12-02T00:12:59.070Z,15.97
2018-12-02T00:15:27.941Z,16.87
2018-12-02T00:18:01.182Z,22.30
2018-12-02T00:20:29.448Z,18.17
2018-12-02T00:22:57.746Z,17.43
2018-12-02T00:25:26.037Z,18.03
2018-12-02T00:27:55.879Z,18.13
2018-12-02T00:30:26.768Z,18.23
2018-12-02T00:33:02.022Z,18.40
2018-12-02T00:35:30.297Z,17.87
2018-12-02T00:37:59.324Z,18.70
2018-12-02T00:40:30.742Z,19.20
2018-12-02T00:43:00.373Z,19.73
2018-12-02T00:45:30.269Z,19.27
2018-12-02T00:47:58.567Z,20.13
2018-12-02T00:50:26.871Z,19.40
2018-12-02T00:52:55.968Z,18.97
2018-12-02T00:55:27.933Z,18.37
2018-12-02T00:57:56.177Z,18.53
2018-12-02T01:00:24.448Z,19.43
2018-12-02T01:02:52.692Z,20.13
2018-12-02T01:05:28.217Z,21.87
2018-12-02T01:08:00.577Z,21.60
2018-12-02T01:10:28.849Z,19.40
2018-12-02T01:12:57.768Z,17.70
2018-12-02T01:15:26.633Z,18.87
2018-12-02T01:17:54.877Z,18.07
2018-12-02T01:20:26.357Z,18.07
2018-12-02T01:22:59.564Z,18.60
2018-12-02T01:25:27.848Z,18.73
2018-12-02T01:27:56.104Z,18.57
2018-12-02T01:30:27.475Z,18.07
2018-12-02T01:32:58.778Z,19.50
2018-12-02T01:35:27.091Z,19.30
2018-12-02T01:38:02.300Z,18.90
2018-12-02T01:40:30.552Z,20.37
2018-12-02T01:42:59.177Z,22.33
2018-12-02T01:45:31.400Z,21.00
2018-12-02T01:47:59.678Z,23.13
2018-12-02T01:50:27.948Z,23.07
2018-12-02T01:52:56.636Z,21.67
2018-12-02T01:55:24.917Z,22.80
2018-12-02T01:57:53.264Z,21.33
2018-12-02T02:00:23.524Z,20.73
2018-12-02T02:02:52.010Z,22.37
2018-12-02T02:05:20.737Z,24.07
2018-12-02T02:07:49.017Z,24.40
2018-12-02T02:10:18.871Z,25.40
2018-12-02T02:12:47.172Z,23.83
2018-12-02T02:15:15.750Z,23.10
2018-12-02T02:17:44.120Z,24.17
2018-12-02T02:20:14.811Z,24.37
2018-12-02T02:22:43.236Z,26.50
2018-12-02T02:25:11.939Z,27.10
2018-12-02T02:27:40.615Z,26.77
2018-12-02T02:30:24.137Z,24.77
2018-12-02T02:32:52.551Z,25.03
2018-12-02T02:35:21.342Z,25.83
2018-12-02T02:37:50.168Z,25.27
2018-12-02T02:40:18.846Z,24.30
2018-12-02T02:42:47.116Z,23.47
2018-12-02T02:45:15.606Z,25.10
2018-12-02T02:47:43.878Z,24.33
2018-12-02T02:50:15.409Z,25.83
2018-12-02T02:52:44.171Z,26.87
2018-12-02T02:55:12.489Z,26.20
2018-12-02T02:57:40.785Z,24.73
2018-12-02T03:00:10.041Z,26.90
2018-12-02T03:02:38.275Z,24.03
2018-12-02T03:05:07.082Z,24.80
2018-12-02T03:07:38.947Z,25.77
2018-12-02T03:10:18.196Z,25.50
2018-12-02T03:12:51.552Z,20.93
2018-12-02T03:15:20.172Z,23.37
2018-12-02T03:17:50.157Z,23.57
2018-12-02T03:20:21.756Z,22.43
2018-12-02T03:22:50.536Z,26.00
2018-12-02T03:25:19.357Z,23.97
2018-12-02T03:27:47.653Z,23.70
2018-12-02T03:30:17.369Z,23.63
2018-12-02T03:32:45.727Z,23.40
2018-12-02T03:35:14.568Z,22.83
2018-12-02T03:37:42.824Z,23.47
2018-12-02T03:40:11.756Z,21.20
2018-12-02T03:42:40.003Z,23.43
2018-12-02T03:45:09.231Z,22.23
2018-12-02T03:47:37.466Z,22.03
2018-12-02T03:50:08.066Z,20.70
2018-12-02T03:52:36.311Z,20.40
2018-12-02T03:55:07.204Z,19.53
2018-12-02T03:57:37.267Z,19.90
2018-12-02T04:00:14.143Z,18.83
2018-12-02T04:02:42.414Z,19.00
2018-12-02T04:05:11.301Z,18.43
2018-12-02T04:07:39.620Z,16.87
2018-12-02T04:10:11.104Z,16.40
2018-12-02T04:12:39.373Z,16.37
2018-12-02T04:15:10.248Z,16.77
2018-12-02T04:17:38.559Z,16.10
2018-12-02T04:20:11.833Z,17.57
2018-12-02T04:22:49.039Z,15.60
2018-12-02T04:25:19.354Z,15.20
2018-12-02T04:27:47.652Z,15.63
2018-12-02T04:30:17.328Z,16.23
2018-12-02T04:32:45.923Z,15.40
2018-12-02T04:35:14.854Z,13.77
2018-12-02T04:37:43.077Z,13.77
2018-12-02T04:40:12.772Z,11.17
2018-12-02T04:42:41.033Z,9.53
2018-12-02T04:45:11.572Z,8.47
2018-12-02T04:47:39.838Z,8.07
2018-12-02T04:50:10.598Z,6.83
2018-12-02T04:52:38.845Z,5.70
2018-12-02T04:55:07.531Z,4.80
2018-12-02T04:57:35.794Z,5.37
2018-12-02T05:00:04.408Z,4.33
2018-12-02T05:02:32.627Z,4.57
2018-12-02T05:05:00.848Z,4.70
2018-12-02T05:07:29.083Z,4.20
2018-12-02T05:09:57.307Z,3.40
2018-12-02T05:12:25.543Z,3.50
2018-12-02T05:14:53.786Z,3.27
2018-12-02T05:17:22.006Z,2.83
2018-12-02T05:19:50.282Z,3.43
2018-12-02T05:22:18.504Z,3.53
2018-12-02T05:24:46.736Z,3.33
2018-12-02T05:27:15.045Z,3.60
2018-12-02T05:29:43.273Z,3.23
2018-12-02T05:32:11.536Z,3.67
2018-12-02T05:34:39.784Z,4.07
2018-12-02T05:37:08.008Z,3.77
2018-12-02T05:39:36.241Z,3.90
2018-12-02T05:42:09.844Z,4.37
2018-12-02T05:44:38.091Z,4.30
2018-12-02T05:47:06.323Z,4.70
2018-12-02T05:49:34.545Z,5.27
2018-12-02T05:52:02.776Z,5.37
2018-12-02T05:54:31.028Z,6.00
2018-12-02T05:56:59.455Z,7.73
2018-12-02T05:59:27.734Z,9.10
2018-12-02T06:01:56.086Z,10.53
2018-12-02T06:04:24.657Z,11.67
2018-12-02T06:06:52.867Z,13.50
2018-12-02T06:09:21.124Z,13.13
2018-12-02T06:11:49.343Z,13.30
2018-12-02T06:14:17.592Z,12.80
2018-12-02T06:16:45.857Z,13.43
2018-12-02T06:19:14.162Z,15.77
2018-12-02T06:21:42.432Z,15.53
2018-12-02T06:24:10.644Z,15.17
2018-12-02T06:26:38.891Z,15.23
2018-12-02T06:29:07.123Z,13.83
2018-12-02T06:31:35.339Z,13.47
2018-12-02T06:34:04.116Z,14.30
2018-12-02T06:36:32.443Z,12.27
2018-12-02T06:39:00.665Z,13.53
2018-12-02T06:41:28.923Z,13.30
2018-12-02T06:43:57.140Z,13.90
2018-12-02T06:46:25.382Z,12.47
2018-12-02T06:48:53.614Z,12.33
2018-12-02T06:51:21.838Z,12.23
2018-12-02T06:53:50.069Z,12.40
2018-12-02T06:56:21.995Z,11.97
2018-12-02T06:59:11.488Z,10.70
2018-12-02T07:01:49.301Z,10.40
2018-12-02T07:04:22.351Z,9.80
2018-12-02T07:06:50.609Z,11.50
2018-12-02T07:09:18.985Z,9.97
2018-12-02T07:11:47.129Z,8.87
2018-12-02T07:14:15.334Z,8.70
2018-12-02T07:16:43.547Z,8.77
2018-12-02T07:19:16.012Z,6.63
2018-12-02T07:21:47.254Z,7.07
2018-12-02T07:24:17.108Z,6.97
2018-12-02T07:26:48.557Z,7.67
2018-12-02T07:29:16.813Z,7.70
2018-12-02T07:31:45.390Z,6.60
2018-12-02T07:34:13.633Z,6.67
2018-12-02T07:36:41.902Z,7.30
2018-12-02T07:39:22.657Z,7.13
2018-12-02T07:41:50.946Z,7.30
2018-12-02T07:44:19.187Z,7.17
2018-12-02T07:46:47.877Z,5.73
2018-12-02T07:49:16.178Z,5.87
2018-12-02T07:51:44.407Z,5.53
2018-12-02T07:54:13.044Z,4.80
2018-12-02T07:56:41.251Z,4.37
2018-12-02T07:59:09.689Z,4.47
2018-12-02T08:01:37.976Z,4.03
2018-12-02T08:04:06.192Z,3.90
2018-12-02T08:06:34.464Z,4.07
2018-12-02T08:09:02.748Z,3.83
2018-12-02T08:11:30.990Z,3.90
2018-12-02T08:13:59.222Z,3.73
2018-12-02T08:16:27.476Z,3.60
2018-12-02T08:18:56.721Z,3.53
2018-12-02T08:21:24.946Z,3.77
2018-12-02T08:23:53.253Z,3.60
2018-12-02T08:26:21.468Z,3.75
2018-12-02T08:28:49.675Z,3.07
2018-12-02T08:31:18.045Z,3.37
2018-12-02T08:33:46.262Z,2.87
2018-12-02T08:36:14.530Z,2.97
2018-12-02T08:38:42.827Z,3.43
2018-12-02T08:41:11.080Z,2.60
2018-12-02T08:43:39.319Z,3.10
2018-12-02T08:46:07.541Z,2.63
2018-12-02T08:48:35.792Z,3.10
2018-12-02T08:51:04.014Z,2.67
2018-12-02T08:53:32.260Z,2.73
2018-12-02T08:56:00.549Z,3.13
2018-12-02T08:58:28.765Z,2.90
2018-12-02T09:00:57.512Z,3.20
2018-12-02T09:03:25.732Z,2.60
2018-12-02T09:05:53.949Z,2.70
2018-12-02T09:08:22.604Z,2.87
2018-12-02T09:10:50.825Z,3.00
2018-12-02T09:13:19.093Z,3.47
2018-12-02T09:15:47.328Z,2.90
2018-12-02T09:18:15.539Z,3.63
2018-12-02T09:20:43.812Z,3.63
2018-12-02T09:23:13.123Z,3.87
2018-12-02T09:25:40.471Z,4.77
2018-12-02T09:28:09.042Z,4.73
2018-12-02T09:30:37.487Z,4.33
2018-12-02T09:33:05.764Z,3.43
2018-12-02T09:35:34.010Z,3.97
2018-12-02T09:38:02.543Z,4.13
2018-12-02T09:40:30.758Z,4.63
2018-12-02T09:42:59.120Z,4.80
2018-12-02T09:45:27.896Z,4.10
2018-12-02T09:47:56.771Z,4.77
2018-12-02T09:50:25.047Z,4.77
2018-12-02T09:52:53.323Z,4.47
2018-12-02T09:55:22.134Z,3.73
2018-12-02T09:57:50.748Z,3.97
2018-12-02T10:00:19.590Z,3.50
2018-12-02T10:02:47.818Z,3.67
2018-12-02T10:05:16.096Z,3.10
2018-12-02T10:07:44.616Z,2.87
2018-12-02T10:10:13.508Z,2.80
2018-12-02T10:12:42.300Z,3.87
2018-12-02T10:15:11.068Z,2.63
2018-12-02T10:17:39.331Z,3.67
2018-12-02T10:20:10.240Z,4.33
2018-12-02T10:22:38.512Z,3.90
2018-12-02T10:25:08.088Z,3.80
2018-12-02T10:27:36.296Z,3.90
2018-12-02T10:30:06.895Z,3.87
2018-12-02T10:32:35.199Z,3.70
2018-12-02T10:35:03.453Z,4.27
2018-12-02T10:37:31.668Z,3.70
2018-12-02T10:39:59.912Z,4.27
2018-12-02T10:42:28.143Z,4.27
2018-12-02T10:44:56.387Z,3.90
2018-12-02T10:47:24.650Z,4.43
2018-12-02T10:49:52.884Z,3.63
2018-12-02T10:52:21.144Z,4.17
2018-12-02T10:54:49.363Z,3.90
2018-12-02T10:57:17.957Z,3.63
2018-12-02T10:59:46.452Z,4.60
2018-12-02T11:02:16.649Z,3.93
2018-12-02T11:04:44.903Z,4.77
2018-12-02T11:07:13.124Z,3.73
2018-12-02T11:09:41.369Z,3.70
2018-12-02T11:12:09.729Z,3.80
2018-12-02T11:14:37.968Z,4.83
2018-12-02T11:17:06.203Z,4.93
2018-12-02T11:19:34.432Z,4.33
2018-12-02T11:22:02.720Z,4.43
2018-12-02T11:24:30.984Z,4.90
2018-12-02T11:26:59.276Z,5.60
2018-12-02T11:29:27.514Z,5.27
2018-12-02T11:31:55.751Z,5.43
2018-12-02T11:34:24.043Z,4.90
2018-12-02T11:36:52.302Z,5.23
2018-12-02T11:39:20.540Z,4.17
2018-12-02T11:41:48.770Z,4.87
2018-12-02T11:44:17.020Z,5.07
2018-12-02T11:46:45.447Z,4.53
2018-12-02T11:49:13.673Z,4.30
2018-12-02T11:51:43.296Z,3.63
2018-12-02T11:54:12.314Z,4.67
2018-12-02T11:56:40.563Z,4.03
2018-12-02T11:59:09.371Z,4.03
2018-12-02T12:01:37.647Z,4.80
2018-12-02T12:04:05.889Z,4.50
2018-12-02T12:06:34.172Z,4.40
2018-12-02T12:09:02.447Z,5.40
2018-12-02T12:11:30.716Z,4.93
2018-12-02T12:13:58.961Z,4.03
2018-12-02T12:16:27.208Z,4.20
2018-12-02T12:18:55.445Z,4.17
2018-12-02T12:21:24.350Z,4.13
2018-12-02T12:23:52.593Z,3.73
2018-12-02T12:26:20.953Z,3.10
2018-12-02T12:28:49.197Z,4.00
2018-12-02T12:31:17.448Z,3.87
2018-12-02T12:33:45.688Z,4.27
2018-12-02T12:36:14.384Z,4.53
2018-12-02T12:38:42.631Z,3.97
2018-12-02T12:41:10.895Z,4.97
2018-12-02T12:43:39.567Z,5.10
2018-12-02T12:46:07.797Z,5.33
2018-12-02T12:48:36.048Z,5.63
2018-12-02T12:51:04.372Z,5.37
2018-12-02T12:53:33.899Z,4.80
2018-12-02T12:56:02.154Z,5.77
2018-12-02T12:58:30.468Z,5.20
2018-12-02T13:00:58.745Z,4.90
2018-12-02T13:03:27.004Z,4.20
2018-12-02T13:05:55.263Z,3.27
2018-12-02T13:08:23.499Z,4.13
2018-12-02T13:10:51.755Z,3.63
2018-12-02T13:13:20.085Z,3.47
2018-12-02T13:15:48.350Z,3.93
2018-12-02T13:18:16.614Z,3.63
2018-12-02T13:20:47.637Z,3.60
2018-12-02T13:23:15.926Z,3.30
2018-12-02T13:25:44.171Z,3.87
2018-12-02T13:28:12.421Z,3.20
2018-12-02T13:30:40.740Z,3.27
2018-12-02T13:33:08.969Z,2.53
2018-12-02T13:35:37.540Z,2.90
2018-12-02T13:38:05.922Z,3.60
2018-12-02T13:40:34.227Z,2.63
2018-12-02T13:43:05.033Z,3.00
2018-12-02T13:45:34.300Z,2.70
2018-12-02T13:48:02.543Z,3.13
2018-12-02T13:50:30.784Z,3.67
2018-12-02T13:52:59.090Z,3.63
2018-12-02T13:55:28.840Z,2.97
2018-12-02T13:57:57.691Z,3.07
2018-12-02T14:00:26.308Z,2.87
2018-12-02T14:02:59.382Z,3.00
2018-12-02T14:05:27.674Z,3.30
2018-12-02T14:07:55.899Z,2.83
2018-12-02T14:10:24.153Z,2.63
2018-12-02T14:12:53.205Z,3.27
2018-12-02T14:15:25.548Z,2.73
2018-12-02T14:17:55.313Z,3.03
2018-12-02T14:20:23.542Z,3.17
2018-12-02T14:22:52.204Z,2.57
2018-12-02T14:25:20.624Z,2.40
2018-12-02T14:27:49.637Z,2.10
2018-12-02T14:30:18.606Z,3.45
2018-12-02T14:32:46.843Z,2.83
2018-12-02T14:35:15.067Z,2.50
2018-12-02T14:37:43.360Z,2.50
2018-12-02T14:40:12.107Z,2.63
2018-12-02T14:42:40.801Z,2.17
2018-12-02T14:45:10.113Z,2.20
2018-12-02T14:47:38.460Z,2.23
2018-12-02T14:50:09.030Z,3.40
2018-12-02T14:52:37.656Z,2.27
2018-12-02T14:55:06.723Z,2.70
2018-12-02T14:57:34.998Z,3.23
2018-12-02T15:00:04.068Z,2.37
2018-12-02T15:02:47.656Z,2.00
2018-12-02T15:05:16.774Z,1.70
2018-12-02T15:07:45.016Z,2.20
2018-12-02T15:10:16.737Z,2.47
2018-12-02T15:12:45.932Z,2.33
2018-12-02T15:15:14.795Z,3.00
2018-12-02T15:17:43.501Z,2.77
2018-12-02T15:20:13.438Z,2.70
2018-12-02T15:22:41.740Z,2.63
2018-12-02T15:25:11.203Z,2.03
2018-12-02T15:27:39.526Z,2.60
2018-12-02T15:30:11.119Z,2.17
2018-12-02T15:32:39.632Z,2.63
2018-12-02T15:35:08.875Z,2.70
2018-12-02T15:37:37.105Z,2.07
2018-12-02T15:40:07.566Z,2.80
2018-12-02T15:42:35.569Z,2.20
2018-12-02T15:45:03.894Z,2.23
2018-12-02T15:47:32.305Z,2.23
2018-12-02T15:50:00.559Z,2.77
2018-12-02T15:52:28.848Z,2.57
2018-12-02T15:54:57.111Z,3.00
2018-12-02T15:57:25.608Z,2.33
2018-12-02T15:59:53.857Z,2.00
2018-12-02T16:02:22.165Z,2.70
2018-12-02T16:04:50.388Z,2.30
2018-12-02T16:07:18.636Z,2.47
2018-12-02T16:09:50.192Z,1.97
2018-12-02T16:12:19.004Z,2.63
2018-12-02T16:14:51.724Z,2.17
2018-12-02T16:17:16.795Z,2.87
2018-12-02T16:19:45.389Z,2.70
2018-12-02T16:22:13.840Z,3.03
2018-12-02T16:24:42.092Z,3.97
2018-12-02T16:27:10.304Z,3.90
2018-12-02T16:29:38.737Z,3.70
2018-12-02T16:32:07.591Z,3.23
2018-12-02T16:34:36.727Z,3.50
2018-12-02T16:37:05.023Z,3.67
2018-12-02T16:39:33.261Z,3.33
2018-12-02T16:42:01.472Z,4.37
2018-12-02T16:44:29.740Z,3.83
2018-12-02T16:46:57.960Z,3.03
2018-12-02T16:49:26.186Z,3.27
2018-12-02T16:51:54.435Z,4.20
2018-12-02T16:54:22.737Z,3.93
2018-12-02T16:56:51.510Z,4.87
2018-12-02T16:59:23.153Z,3.80
2018-12-02T17:01:53.567Z,4.80
2018-12-02T17:04:21.789Z,4.43
2018-12-02T17:06:50.012Z,3.60
2018-12-02T17:09:18.528Z,4.57
2018-12-02T17:11:46.761Z,4.60
2018-12-02T17:14:14.983Z,4.40
2018-12-02T17:16:43.239Z,4.73
2018-12-02T17:19:11.513Z,5.78
2018-12-02T17:21:40.816Z,4.13
2018-12-02T17:24:09.582Z,4.90
2018-12-02T17:26:37.933Z,4.53
2018-12-02T17:29:07.695Z,3.93
2018-12-02T17:31:38.107Z,4.13
2018-12-02T17:34:06.367Z,5.60
2018-12-02T17:36:34.621Z,4.67
2018-12-02T17:39:07.184Z,3.90
2018-12-02T17:41:35.403Z,4.83
2018-12-02T17:44:03.884Z,3.50
2018-12-02T17:46:32.258Z,4.00
2018-12-02T17:49:01.027Z,4.47
2018-12-02T17:51:29.273Z,3.53
2018-12-02T17:53:57.531Z,3.50
2018-12-02T17:56:25.776Z,3.50
2018-12-02T17:58:54.064Z,3.27
2018-12-02T18:01:22.392Z,4.00
2018-12-02T18:03:51.304Z,4.13
2018-12-02T18:06:19.554Z,3.80
2018-12-02T18:08:47.820Z,3.70
2018-12-02T18:11:16.092Z,4.07
2018-12-02T18:13:44.323Z,4.00
2018-12-02T18:16:13.024Z,3.70
2018-12-02T18:18:41.249Z,4.10
2018-12-02T18:21:09.492Z,3.90
2018-12-02T18:23:37.918Z,3.60
2018-12-02T18:26:06.204Z,3.13
2018-12-02T18:28:34.449Z,3.67
2018-12-02T18:31:02.713Z,4.30
2018-12-02T18:33:30.945Z,3.80
2018-12-02T18:35:59.972Z,4.40
2018-12-02T18:38:29.352Z,4.63
2018-12-02T18:40:59.423Z,4.40
2018-12-02T18:43:27.677Z,5.12
2018-12-02T18:45:56.005Z,4.67
2018-12-02T18:48:24.319Z,5.28
2018-12-02T18:50:52.546Z,4.30
2018-12-02T18:53:20.806Z,3.73
2018-12-02T18:55:49.115Z,5.60
2018-12-02T18:58:17.363Z,4.60
2018-12-02T19:00:47.251Z,4.40
2018-12-02T19:03:16.211Z,4.47
2018-12-02T19:05:44.482Z,4.63
2018-12-02T19:08:12.781Z,4.90
2018-12-02T19:10:41.133Z,4.60
2018-12-02T19:13:09.428Z,4.27
2018-12-02T19:15:37.705Z,4.67
2018-12-02T19:18:06.530Z,4.33
2018-12-02T19:20:34.765Z,4.33
2018-12-02T19:23:04.083Z,4.43
2018-12-02T19:25:32.341Z,3.43
2018-12-02T19:28:00.584Z,4.60
2018-12-02T19:30:33.048Z,4.67
2018-12-02T19:32:57.116Z,3.97
2018-12-02T19:35:29.174Z,3.80
2018-12-02T19:37:59.692Z,4.07
2018-12-02T19:40:27.942Z,4.17
2018-12-02T19:42:56.230Z,4.57
2018-12-02T19:45:25.594Z,3.83
2018-12-02T19:47:53.878Z,4.33
2018-12-02T19:50:22.209Z,4.33
2018-12-02T19:52:50.493Z,4.47
2018-12-02T19:55:18.757Z,5.40
2018-12-02T19:57:47.646Z,4.47
2018-12-02T20:00:26.423Z,4.93
2018-12-02T20:02:55.113Z,4.43
2018-12-02T20:05:23.446Z,4.43
2018-12-02T20:07:52.468Z,4.73
2018-12-02T20:10:21.638Z,4.03
2018-12-02T20:12:50.136Z,4.03
2018-12-02T20:15:18.448Z,3.77
2018-12-02T20:17:46.930Z,4.10
2018-12-02T20:20:21.456Z,3.57
2018-12-02T20:22:49.720Z,4.73
2018-12-02T20:25:18.361Z,4.27
2018-12-02T20:27:46.747Z,3.50
2018-12-02T20:30:16.640Z,4.47
2018-12-02T20:32:47.751Z,4.07
2018-12-02T20:35:26.110Z,4.20
2018-12-02T20:37:58.291Z,3.80
2018-12-02T20:40:38.631Z,3.50
2018-12-02T20:43:15.238Z,4.37
2018-12-02T20:45:50.689Z,4.57
2018-12-02T20:48:24.427Z,5.20
2018-12-02T20:50:56.648Z,4.90
2018-12-02T20:53:26.844Z,5.80
2018-12-02T20:56:14.922Z,5.07
2018-12-02T20:58:45.253Z,5.97
2018-12-02T21:01:13.804Z,6.70
2018-12-02T21:03:51.382Z,5.80
2018-12-02T21:06:20.537Z,5.73
2018-12-02T21:08:56.696Z,6.07
2018-12-02T21:14:10.635Z,6.23
2018-12-02T21:16:41.188Z,5.80
2018-12-02T21:19:11.804Z,6.50
2018-12-02T21:21:48.163Z,6.87
2018-12-02T21:24:17.217Z,6.20
2018-12-02T21:26:57.022Z,6.57
2018-12-02T21:29:37.488Z,5.43
2018-12-02T21:32:08.957Z,5.00
2018-12-02T21:34:42.283Z,4.70
2018-12-02T21:39:56.268Z,5.17
2018-12-02T21:42:35.233Z,5.60
2018-12-02T21:45:09.009Z,5.87
2018-12-02T21:47:38.647Z,4.90
2018-12-02T21:50:10.766Z,6.63
2018-12-02T21:52:39.030Z,6.13
2018-12-02T21:55:11.622Z,5.80
2018-12-02T21:57:40.526Z,5.43
2018-12-02T22:00:20.560Z,5.60
2018-12-02T22:02:49.652Z,5.07
2018-12-02T22:05:18.839Z,5.27
2018-12-02T22:07:49.083Z,5.60
2018-12-02T22:10:20.980Z,4.80
2018-12-02T22:12:50.010Z,4.67
2018-12-02T22:15:31.869Z,4.73
2018-12-02T22:18:04.177Z,5.50
2018-12-02T22:20:33.183Z,4.43
2018-12-02T22:23:01.857Z,4.97
2018-12-02T22:25:30.488Z,3.77
2018-12-02T22:27:59.908Z,4.40
2018-12-02T22:30:28.230Z,3.73
2018-12-02T22:32:56.594Z,3.30
2018-12-02T22:35:27.180Z,3.20
2018-12-02T22:37:55.515Z,3.53
2018-12-02T22:40:26.092Z,3.90
2018-12-02T22:42:54.866Z,3.60
2018-12-02T22:45:25.561Z,3.67
2018-12-02T22:47:54.328Z,3.97
2018-12-02T22:50:23.140Z,3.80
2018-12-02T22:52:51.963Z,3.80
2018-12-02T22:55:20.899Z,4.43
2018-12-02T22:57:49.235Z,4.03
2018-12-02T23:00:21.086Z,4.57
2018-12-02T23:03:17.249Z,4.27
2018-12-02T23:05:48.073Z,4.23
2018-12-02T23:08:16.402Z,4.33
2018-12-02T23:10:44.700Z,4.47
2018-12-02T23:13:12.999Z,2.90
2018-12-02T23:15:41.686Z,2.90
2018-12-02T23:18:10.693Z,3.73
2018-12-02T23:20:38.991Z,4.07
2018-12-02T23:23:07.326Z,3.40
2018-12-02T23:25:35.579Z,4.63
2018-12-02T23:28:03.844Z,3.60
2018-12-02T23:30:32.593Z,3.93
2018-12-02T23:33:02.273Z,2.83
2018-12-02T23:35:30.649Z,4.17
2018-12-02T23:37:58.964Z,3.20
2018-12-02T23:40:27.276Z,4.67
2018-12-02T23:42:55.565Z,5.07
2018-12-02T23:45:23.889Z,4.10
2018-12-02T23:47:52.316Z,3.23
2018-12-02T23:50:21.690Z,4.43
2018-12-02T23:52:50.003Z,3.87
2018-12-02T23:55:19.690Z,3.57
2018-12-02T23:57:48.141Z,4.20
